createdAt,value
2024-01-15T00:02:29.994Z,100.00
2024-01-15T00:06:14.085Z,100.00
2024-01-15T00:09:38.186Z,100.00
2024-01-15T00:13:02.249Z,100.00
2024-01-15T00:16:52.616Z,100.00
2024-01-15T00:20:36.665Z,100.00
2024-01-15T00:24:01.144Z,100.00
2024-01-15T00:27:47.843Z,100.00
2024-01-15T00:31:28.383Z,100.00
2024-01-15T00:35:12.724Z,100.00
2024-01-15T00:38:55.790Z,100.00
2024-01-15T00:42:39.464Z,100.00
2024-01-15T00:46:12.942Z,100.00
2024-01-15T00:49:37.460Z,100.00
2024-01-15T00:53:02.491Z,100.00
2024-01-15T00:56:28.992Z,100.00
2024-01-15T01:03:50.124Z,100.00
2024-01-15T01:07:35.559Z,100.00
2024-01-15T01:11:29.784Z,100.00
2024-01-15T01:15:16.619Z,100.00
2024-01-15T01:18:40.078Z,100.00
2024-01-15T01:22:24.658Z,100.00
2024-01-15T01:25:58.552Z,100.00
2024-01-15T01:29:30.647Z,100.00
2024-01-15T01:32:37.566Z,100.00
2024-01-15T01:36:11.265Z,100.00
2024-01-15T01:39:14.168Z,100.00
2024-01-15T01:42:50.976Z,100.00
2024-01-15T01:46:41.845Z,100.00
2024-01-15T01:50:25.232Z,100.00
2024-01-15T01:53:50.100Z,100.00
2024-01-15T01:57:38.318Z,100.00
2024-01-15T02:00:45.840Z,100.00
2024-01-15T02:04:50.691Z,100.00
2024-01-15T02:07:54.609Z,100.00
2024-01-15T02:11:04.023Z,100.00
2024-01-15T02:14:29.077Z,100.00
2024-01-15T02:17:33.841Z,100.00
2024-01-15T02:20:37.549Z,100.00
2024-01-15T02:24:04.628Z,100.00
2024-01-15T02:27:38.631Z,100.00
2024-01-15T02:30:43.656Z,100.00
2024-01-15T02:34:02.508Z,100.00
2024-01-15T02:37:45.606Z,100.00
2024-01-15T02:40:50.689Z,100.00
2024-01-15T02:44:34.083Z,100.00
2024-01-15T02:47:40.195Z,100.00
2024-01-15T02:50:45.922Z,100.00
2024-01-15T02:53:51.912Z,100.00
2024-01-15T02:56:55.897Z,100.00
2024-01-15T03:00:01.471Z,100.00
2024-01-15T03:03:25.392Z,100.00
2024-01-15T03:06:30.805Z,100.00
2024-01-15T03:09:34.572Z,100.00
2024-01-15T03:12:38.478Z,100.00
2024-01-15T03:16:05.209Z,100.00
2024-01-15T03:19:08.494Z,100.00
2024-01-15T03:22:59.476Z,100.00
2024-01-15T03:26:11.731Z,100.00
2024-01-15T03:29:15.345Z,100.00
2024-01-15T03:32:38.852Z,100.00
2024-01-15T03:35:42.434Z,100.00
2024-01-15T03:38:49.696Z,100.00
2024-01-15T03:41:53.983Z,100.00
2024-01-15T03:45:00.563Z,100.00
2024-01-15T03:48:05.340Z,100.00
2024-01-15T03:51:12.142Z,100.00
2024-01-15T03:54:17.746Z,100.00
2024-01-15T03:57:22.444Z,100.00
2024-01-15T04:00:26.927Z,100.00
2024-01-15T04:03:30.529Z,100.00
2024-01-15T04:06:51.714Z,100.00
2024-01-15T04:10:15.219Z,100.00
2024-01-15T04:13:20.871Z,100.00
2024-01-15T04:17:24.199Z,100.00
2024-01-15T04:20:28.182Z,100.00
2024-01-15T04:23:40.425Z,100.00
2024-01-15T04:26:44.183Z,100.00
2024-01-15T04:30:08.565Z,100.00
2024-01-15T04:33:11.775Z,100.00
2024-01-15T04:36:18.836Z,100.00
2024-01-15T04:39:25.481Z,100.00
2024-01-15T04:42:29.960Z,100.00
2024-01-15T04:46:13.017Z,100.00
2024-01-15T04:49:16.906Z,100.00
2024-01-15T04:52:22.503Z,100.00
2024-01-15T04:55:26.846Z,100.00
2024-01-15T04:58:31.992Z,100.00
2024-01-15T05:01:38.129Z,100.00
2024-01-15T05:04:44.852Z,100.00
2024-01-15T05:08:13.852Z,100.00
2024-01-15T05:11:25.188Z,100.00
2024-01-15T05:14:33.474Z,100.00
2024-01-15T05:17:36.528Z,100.00
2024-01-15T05:20:42.001Z,100.00
2024-01-15T05:23:48.348Z,100.00
2024-01-15T05:26:51.909Z,100.00
2024-01-15T05:29:58.678Z,100.00
2024-01-15T05:33:02.551Z,100.00
2024-01-15T05:36:08.879Z,100.00
2024-01-15T05:39:14.725Z,100.00
2024-01-15T05:42:24.276Z,100.00
2024-01-15T05:45:28.402Z,100.00
2024-01-15T05:48:32.615Z,100.00
2024-01-15T05:51:36.834Z,100.00
2024-01-15T05:54:44.182Z,100.00
2024-01-15T05:58:13.121Z,100.00
2024-01-15T06:01:20.277Z,100.00
2024-01-15T06:05:04.458Z,100.00
2024-01-15T06:08:33.709Z,100.00
2024-01-15T06:11:38.309Z,100.00
2024-01-15T06:14:43.834Z,100.00
2024-01-15T06:17:49.405Z,100.00
2024-01-15T06:20:54.590Z,100.00
2024-01-15T06:24:00.631Z,100.00
2024-01-15T06:27:08.424Z,100.00
2024-01-15T06:30:17.227Z,100.00
2024-01-15T06:33:24.220Z,100.00
2024-01-15T06:36:28.202Z,100.00
2024-01-15T06:40:15.608Z,100.00
2024-01-15T06:43:27.572Z,100.00
2024-01-15T06:46:50.420Z,100.00
2024-01-15T06:49:56.501Z,100.00
2024-01-15T06:53:05.664Z,100.00
2024-01-15T06:56:54.308Z,100.00
2024-01-15T07:00:17.612Z,100.00
2024-01-15T07:03:27.110Z,100.00
2024-01-15T07:06:32.210Z,100.00
2024-01-15T07:09:35.655Z,100.00
2024-01-15T07:12:42.929Z,100.00
2024-01-15T07:15:55.613Z,100.00
2024-01-15T07:18:59.674Z,100.00
2024-01-15T07:22:20.996Z,100.00
2024-01-15T07:25:24.297Z,100.00
2024-01-15T07:28:38.649Z,100.00
2024-01-15T07:31:50.934Z,100.00
2024-01-15T07:34:56.332Z,100.00
2024-01-15T07:38:01.208Z,100.00
2024-01-15T07:41:05.038Z,100.00
2024-01-15T07:44:08.652Z,100.00
2024-01-15T07:47:12.252Z,100.00
2024-01-15T07:50:15.379Z,100.00
2024-01-15T07:53:21.388Z,100.00
2024-01-15T07:57:14.268Z,100.00
2024-01-15T08:00:18.075Z,100.00
2024-01-15T08:03:26.586Z,100.00
2024-01-15T08:06:31.071Z,100.00
2024-01-15T08:09:37.187Z,100.00
2024-01-15T08:12:44.197Z,100.00
2024-01-15T08:15:49.797Z,100.00
2024-01-15T08:18:55.422Z,100.00
2024-01-15T08:21:58.357Z,100.00
2024-01-15T08:25:01.607Z,100.00
2024-01-15T08:28:09.422Z,100.00
2024-01-15T08:31:12.436Z,100.00
2024-01-15T08:34:18.130Z,100.00
2024-01-15T08:37:22.863Z,100.00
2024-01-15T08:40:28.642Z,100.00
2024-01-15T08:43:35.192Z,100.00
2024-01-15T08:46:39.217Z,100.00
2024-01-15T08:49:49.960Z,100.00
2024-01-15T08:52:53.736Z,100.00
2024-01-15T08:55:57.113Z,100.00
2024-01-15T08:59:03.315Z,100.00
2024-01-15T09:02:11.148Z,100.00
2024-01-15T09:05:16.564Z,100.00
2024-01-15T09:08:45.408Z,100.00
2024-01-15T09:11:48.244Z,100.00
2024-01-15T09:14:53.458Z,100.00
2024-01-15T09:18:00.657Z,100.00
2024-01-15T09:21:07.709Z,100.00
2024-01-15T09:24:11.183Z,97.08
2024-01-15T09:27:14.622Z,95.11
2024-01-15T09:30:21.049Z,89.49
2024-01-15T09:33:24.657Z,89.71
2024-01-15T09:36:28.575Z,85.87
2024-01-15T09:39:38.018Z,85.40
2024-01-15T09:42:42.218Z,83.49
2024-01-15T09:45:45.621Z,83.50
2024-01-15T09:48:49.075Z,83.28
2024-01-15T09:51:59.566Z,82.02
2024-01-15T09:55:14.201Z,82.08
2024-01-15T09:58:22.061Z,79.53
2024-01-15T10:01:26.474Z,78.70
2024-01-15T10:04:31.999Z,78.64
2024-01-15T10:07:42.784Z,75.67
2024-01-15T10:11:02.551Z,75.69
2024-01-15T10:14:06.589Z,74.56
2024-01-15T10:17:15.646Z,73.65
2024-01-15T10:20:18.188Z,72.02
2024-01-15T10:23:24.785Z,72.22
2024-01-15T10:26:28.521Z,71.71
2024-01-15T10:29:31.698Z,70.49
2024-01-15T10:32:37.658Z,69.95
2024-01-15T10:35:43.514Z,68.51
2024-01-15T10:38:47.820Z,68.07
2024-01-15T10:41:55.202Z,68.32
2024-01-15T10:44:58.996Z,65.22
2024-01-15T10:48:04.076Z,65.96
2024-01-15T10:51:12.389Z,65.39
2024-01-15T10:54:18.696Z,65.59
2024-01-15T10:57:27.570Z,65.20
2024-01-15T11:00:31.976Z,62.74
2024-01-15T11:03:56.353Z,62.53
2024-01-15T11:06:59.891Z,62.42
2024-01-15T11:10:05.606Z,62.79
2024-01-15T11:13:23.720Z,63.40
2024-01-15T11:17:06.449Z,63.11
2024-01-15T11:20:13.975Z,63.57
2024-01-15T11:23:52.354Z,62.52
2024-01-15T11:26:59.692Z,62.99
2024-01-15T11:30:05.797Z,62.43
2024-01-15T11:33:34.403Z,61.65
2024-01-15T11:36:49.756Z,60.60
2024-01-15T11:40:02.536Z,59.77
2024-01-15T11:43:10.651Z,59.44
2024-01-15T11:46:19.931Z,59.55
2024-01-15T11:49:45.414Z,59.18
2024-01-15T11:53:15.818Z,59.84
2024-01-15T11:56:26.691Z,59.81
2024-01-15T11:59:31.920Z,59.29
2024-01-15T12:02:35.595Z,61.10
2024-01-15T12:05:40.453Z,60.59
2024-01-15T12:08:45.559Z,59.97
2024-01-15T12:12:17.803Z,60.90
2024-01-15T12:15:30.077Z,60.62
2024-01-15T12:19:17.633Z,60.57
2024-01-15T12:22:20.835Z,60.57
2024-01-15T12:25:36.114Z,60.96
2024-01-15T12:28:39.595Z,60.80
2024-01-15T12:31:49.778Z,60.20
2024-01-15T12:34:52.952Z,59.77
2024-01-15T12:38:04.521Z,59.43
2024-01-15T12:41:11.326Z,59.81
2024-01-15T12:44:14.565Z,59.86
2024-01-15T12:47:20.319Z,58.73
2024-01-15T12:50:27.104Z,58.36
2024-01-15T12:53:29.578Z,58.09
2024-01-15T12:56:36.392Z,57.96
2024-01-15T12:59:40.137Z,56.82
2024-01-15T13:02:46.844Z,57.78
2024-01-15T13:06:09.594Z,57.35
2024-01-15T13:09:16.085Z,57.61
2024-01-15T13:12:18.922Z,57.24
2024-01-15T13:15:24.924Z,57.85
2024-01-15T13:18:38.083Z,57.88
2024-01-15T13:21:43.347Z,57.69
2024-01-15T13:24:48.551Z,57.08
2024-01-15T13:27:54.638Z,57.91
2024-01-15T13:30:58.090Z,57.47
2024-01-15T13:34:10.632Z,57.34
2024-01-15T13:37:13.527Z,56.86
2024-01-15T13:40:21.144Z,56.73
2024-01-15T13:43:24.140Z,56.04
2024-01-15T13:46:31.005Z,57.05
2024-01-15T13:49:38.268Z,56.66
2024-01-15T13:52:46.099Z,56.47
2024-01-15T13:55:51.143Z,57.82
2024-01-15T13:59:17.174Z,57.09
2024-01-15T14:02:22.936Z,56.74
2024-01-15T14:05:48.938Z,56.68
2024-01-15T14:08:52.001Z,57.97
2024-01-15T14:11:59.649Z,58.35
2024-01-15T14:15:30.875Z,59.62
2024-01-15T14:18:59.085Z,60.81
2024-01-15T14:22:05.886Z,62.01
2024-01-15T14:25:50.246Z,62.21
2024-01-15T14:29:19.893Z,62.15
2024-01-15T14:32:44.722Z,63.06
2024-01-15T14:35:55.270Z,63.81
2024-01-15T14:39:28.706Z,63.69
2024-01-15T14:43:20.209Z,64.04
2024-01-15T14:47:04.561Z,64.23
2024-01-15T14:50:34.471Z,64.58
2024-01-15T14:53:59.960Z,64.72
2024-01-15T14:57:24.291Z,65.12
2024-01-15T15:01:20.725Z,65.03
2024-01-15T15:04:49.513Z,65.52
2024-01-15T15:07:53.980Z,65.11
2024-01-15T15:11:17.880Z,65.45
2024-01-15T15:15:08.822Z,65.80
2024-01-15T15:18:49.691Z,65.76
2024-01-15T15:21:53.796Z,65.06
2024-01-15T15:25:58.024Z,65.29
2024-01-15T15:29:26.684Z,65.37
2024-01-15T15:32:29.967Z,65.24
2024-01-15T15:35:33.494Z,66.12
2024-01-15T15:38:40.334Z,66.12
2024-01-15T15:41:54.456Z,65.89
2024-01-15T15:45:03.513Z,66.49
2024-01-15T15:48:26.804Z,67.00
2024-01-15T15:51:31.021Z,67.40
2024-01-15T15:54:38.789Z,67.33
2024-01-15T15:58:33.977Z,67.08
2024-01-15T16:02:00.279Z,67.25
2024-01-15T16:05:11.615Z,67.44
2024-01-15T16:08:37.531Z,67.78
2024-01-15T16:11:42.243Z,67.41
2024-01-15T16:14:47.755Z,68.36
2024-01-15T16:23:18.085Z,68.10
2024-01-15T16:23:36.267Z,68.42
2024-01-15T16:25:29.275Z,68.86
2024-01-15T16:28:54.971Z,67.58
2024-01-15T16:31:58.409Z,67.54
2024-01-15T16:35:04.747Z,67.84
2024-01-15T16:38:29.597Z,67.04
2024-01-15T16:41:32.697Z,65.70
2024-01-15T16:44:56.449Z,65.69
2024-01-15T16:48:21.390Z,66.19
2024-01-15T16:51:26.018Z,66.26
2024-01-15T16:54:48.833Z,65.93
2024-01-15T16:57:52.390Z,66.53
2024-01-15T17:01:17.071Z,67.59
2024-01-15T17:04:25.483Z,67.45
2024-01-15T17:07:37.273Z,66.92
2024-01-15T17:11:09.405Z,67.49
2024-01-15T17:14:19.483Z,68.24
2024-01-15T17:17:44.309Z,68.16
2024-01-15T17:20:59.454Z,69.29
2024-01-15T17:24:05.960Z,69.57
2024-01-15T17:27:19.280Z,69.91
2024-01-15T17:30:25.771Z,69.58
2024-01-15T17:33:28.843Z,69.30
2024-01-15T17:36:34.798Z,69.48
2024-01-15T17:39:38.715Z,70.13
2024-01-15T17:42:44.272Z,70.52
2024-01-15T17:45:49.949Z,70.08
2024-01-15T17:49:08.349Z,70.61
2024-01-15T17:52:33.201Z,70.98
2024-01-15T17:55:41.718Z,72.11
2024-01-15T17:59:08.047Z,71.91
2024-01-15T18:02:14.074Z,72.12
2024-01-15T18:05:22.013Z,71.23
2024-01-15T18:08:28.096Z,71.02
2024-01-15T18:11:33.868Z,71.51
2024-01-15T18:14:38.001Z,72.46
2024-01-15T18:17:46.695Z,71.68
2024-01-15T18:21:09.786Z,71.80
2024-01-15T18:24:15.080Z,71.05
2024-01-15T18:27:41.840Z,71.17
2024-01-15T18:30:51.146Z,70.57
2024-01-15T18:34:17.364Z,70.37
2024-01-15T18:37:54.144Z,70.98
2024-01-15T18:41:03.516Z,71.13
2024-01-15T18:44:13.457Z,71.61
2024-01-15T18:47:18.449Z,71.61
2024-01-15T18:50:45.294Z,72.29
2024-01-15T18:54:12.292Z,72.92
2024-01-15T18:57:58.365Z,72.56
2024-01-15T19:01:41.904Z,72.41
2024-01-15T19:05:01.627Z,72.52
2024-01-15T19:08:28.126Z,72.75
2024-01-15T19:11:34.218Z,73.32
2024-01-15T19:15:00.767Z,73.56
2024-01-15T19:18:04.712Z,73.53
2024-01-15T19:21:07.939Z,73.60
2024-01-15T19:24:12.059Z,73.65
2024-01-15T19:27:14.907Z,74.19
2024-01-15T19:30:49.665Z,74.32
2024-01-15T19:33:59.057Z,74.70
2024-01-15T19:37:09.336Z,74.66
2024-01-15T19:40:40.447Z,75.15
2024-01-15T19:43:50.787Z,75.43
2024-01-15T19:46:53.774Z,75.69
2024-01-15T19:49:57.824Z,75.02
2024-01-15T19:53:04.120Z,75.15
2024-01-15T19:56:30.840Z,75.55
2024-01-15T20:00:17.281Z,75.99
2024-01-15T20:03:43.223Z,76.06
2024-01-15T20:07:28.110Z,76.06
2024-01-15T20:10:51.733Z,76.01
2024-01-15T20:13:55.194Z,76.80
2024-01-15T20:17:20.550Z,76.56
2024-01-15T20:20:45.588Z,76.85
2024-01-15T20:23:58.529Z,77.08
2024-01-15T20:27:32.976Z,77.33
2024-01-15T20:30:40.869Z,77.68
2024-01-15T20:33:48.145Z,77.81
2024-01-15T20:36:59.311Z,77.58
2024-01-15T20:40:06.268Z,77.79
2024-01-15T20:43:30.571Z,77.87
2024-01-15T20:46:40.129Z,77.84
2024-01-15T20:49:43.868Z,77.69
2024-01-15T20:53:10.574Z,77.98
2024-01-15T20:56:34.868Z,78.35
2024-01-15T20:59:38.702Z,78.30
2024-01-15T21:02:51.827Z,78.08
2024-01-15T21:06:17.174Z,78.40
2024-01-15T21:09:33.315Z,78.94
2024-01-15T21:12:42.333Z,79.34
2024-01-15T21:15:50.228Z,79.71
2024-01-15T21:18:57.910Z,79.91
2024-01-15T21:22:09.000Z,80.79
2024-01-15T21:25:31.949Z,80.42
2024-01-15T21:28:39.447Z,80.50
2024-01-15T21:32:14.901Z,80.02
2024-01-15T21:35:26.896Z,80.01
2024-01-15T21:38:34.774Z,80.17
2024-01-15T21:41:55.057Z,80.47
2024-01-15T21:44:57.846Z,80.09
2024-01-15T21:48:09.050Z,80.71
2024-01-15T21:51:12.188Z,80.43
2024-01-15T21:54:37.188Z,80.56
2024-01-15T21:58:23.343Z,81.02
2024-01-15T22:02:10.318Z,81.42
2024-01-15T22:05:18.125Z,81.82
2024-01-15T22:08:40.878Z,81.98
2024-01-15T22:12:09.094Z,82.50
2024-01-15T22:15:48.672Z,83.29
2024-01-15T22:19:35.415Z,84.11
2024-01-15T22:22:58.492Z,84.16
2024-01-15T22:26:05.091Z,85.40
2024-01-15T22:29:14.351Z,85.23
2024-01-15T22:32:21.662Z,86.63
2024-01-15T22:36:04.987Z,86.70
2024-01-15T22:39:11.202Z,87.05
2024-01-15T22:42:14.612Z,87.35
2024-01-15T22:45:40.300Z,88.12
2024-01-15T22:49:03.942Z,88.89
2024-01-15T22:52:15.959Z,88.90
2024-01-15T22:55:55.727Z,88.85
2024-01-15T22:59:00.756Z,89.44
2024-01-15T23:02:05.046Z,87.81
2024-01-15T23:05:09.435Z,87.10
2024-01-15T23:08:35.428Z,87.11
2024-01-15T23:11:46.480Z,87.01
2024-01-15T23:14:50.117Z,87.06
2024-01-15T23:18:07.252Z,87.24
2024-01-15T23:21:14.742Z,87.14
2024-01-15T23:24:19.218Z,87.77
2024-01-15T23:27:47.399Z,86.99
2024-01-15T23:30:51.867Z,86.15
2024-01-15T23:34:15.059Z,84.90
2024-01-15T23:37:39.481Z,85.09
2024-01-15T23:41:02.801Z,85.02
2024-01-15T23:44:48.039Z,84.93
2024-01-15T23:48:37.509Z,84.77
2024-01-15T23:52:21.906Z,85.41
2024-01-15T23:55:24.834Z,85.45
2024-01-15T23:58:49.350Z,85.88
